首页
METAR-TAF:

METAR-TAF

机场 :

雷焦卡拉布里亚, 意大利

纬度: 38-04N, 经度: 015-39E, 海拔: 11米

当前天气观测

该预报发布于3小时和44分钟前的21:50 UTC
风速7节,风向
温度 21°C
湿度 69%
气压 1019 hPa
能见度10公里或以上
1500米以下无云,无积雨云

METAR: LICR 162150Z 01007KT CAVOK 21/15 Q1019

时间: 03:34 (01:34 UTC)

预报

该预报发布于8小时和34分钟前的17:00 UTC
预报有效从16日的 18点(UTC)到 17日的 18点(UTC)
风速5节,风向多变
能见度10公里或以上
散云层高于3000英尺
成为
从 17日的 08点(UTC)到 17日的 10点(UTC)
风速12节,风向
成为
从 17日的 16点(UTC)到 17日的 18点(UTC)
风速5节,风向多变

TAF: LICR 161700Z 1618/1718 VRB05KT 9999 SCT030 BECMG 1708/1710 35012KT BECMG 1716/1718 VRB05KT

超过4000个机场的气象观测和天气预报(METAR&TAF报告)。

可查询的气象台以黄色和红色小点在地图上表示。

将鼠标移到小点上方,可查看气象台名称。

然后点击查看天气观测和预报。

如需切换地图:点击带黑十字的绿色按钮放大地图;点击带横线的绿色按钮缩小地图;或者点击绿色箭头查看邻近地区的地图。


METAR-TAF: